Time,TemperatureF,DewpointF,PressureIn,WindDirection,WindDirectionDegrees,WindSpeedMPH,WindSpeedGustMPH,Humidity,HourlyPrecipIn,Conditions,Clouds,dailyrainin,SoftwareType,DateUTC
2013-05-18 00:02:00,72.0,1.0,29.89,North,0,10.0,10.0,6,0.00,,,-99.99,,2013-05-18 06:02:00,
2013-05-18 00:22:00,71.0,1.0,29.90,North,2,9.0,12.0,6,0.00,,,-99.99,,2013-05-18 06:22:00,
2013-05-18 00:31:00,71.0,1.0,29.90,NNE,18,6.0,12.0,6,0.00,,,-99.99,,2013-05-18 06:31:00,
2013-05-18 00:52:00,70.0,0.0,29.90,North,352,9.0,15.0,6,0.00,,,-99.99,,2013-05-18 06:52:00,
2013-05-18 01:01:00,70.0,3.0,29.91,NNW,347,9.0,14.0,7,0.00,,,-99.99,,2013-05-18 07:01:00,
2013-05-18 01:11:00,68.0,5.0,29.91,NNE,14,6.0,10.0,8,0.00,,,-99.99,,2013-05-18 07:11:00,
2013-05-18 01:21:00,68.0,5.0,29.91,NNE,14,6.0,10.0,8,0.00,,,-99.99,,2013-05-18 07:21:00,
2013-05-18 01:31:00,67.0,6.0,29.92,NE,35,5.0,8.0,9,0.00,,,-99.99,,2013-05-18 07:31:00,
2013-05-18 01:42:00,67.0,6.0,29.92,NNE,21,9.0,9.0,9,0.00,,,-99.99,,2013-05-18 07:42:00,
2013-05-18 01:52:00,67.0,6.0,29.92,NNE,21,9.0,9.0,9,0.00,,,-99.99,,2013-05-18 07:52:00,
2013-05-18 02:01:00,67.0,6.0,29.92,NNE,23,8.0,10.0,9,0.00,,,-99.99,,2013-05-18 08:01:00,
2013-05-18 02:11:00,67.0,6.0,29.92,NNE,23,8.0,10.0,9,0.00,,,-99.99,,2013-05-18 08:11:00,
2013-05-18 02:21:00,67.0,9.0,29.92,North,2,9.0,10.0,10,0.00,,,-99.99,,2013-05-18 08:21:00,
2013-05-18 02:32:00,67.0,9.0,29.92,NNE,16,7.0,12.0,10,0.00,,,-99.99,,2013-05-18 08:32:00,
2013-05-18 02:42:00,67.0,9.0,29.92,NNE,16,7.0,12.0,10,0.00,,,-99.99,,2013-05-18 08:42:00,
2013-05-18 02:52:00,67.0,11.0,29.93,North,8,8.0,10.0,11,0.00,,,-99.99,,2013-05-18 08:52:00,
2013-05-18 03:02:00,66.0,10.0,29.93,North,1,7.0,7.0,11,0.00,,,-99.99,,2013-05-18 09:02:00,
2013-05-18 03:11:00,66.0,10.0,29.93,North,1,7.0,7.0,11,0.00,,,-99.99,,2013-05-18 09:11:00,
2013-05-18 03:22:00,66.0,10.0,29.93,NNE,21,8.0,11.0,11,0.00,,,-99.99,,2013-05-18 09:22:00,
2013-05-18 03:32:00,65.0,11.0,29.94,NNE,25,5.0,8.0,12,0.00,,,-99.99,,2013-05-18 09:32:00,
2013-05-18 03:43:00,65.0,11.0,29.94,NNE,25,5.0,8.0,12,0.00,,,-99.99,,2013-05-18 09:43:00,
2013-05-18 03:53:00,65.0,11.0,29.94,NNE,28,1.0,8.0,12,0.00,,,-99.99,,2013-05-18 09:53:00,
2013-05-18 04:02:00,64.0,10.0,29.94,NNE,18,6.0,8.0,12,0.00,,,-99.99,,2013-05-18 10:02:00,
2013-05-18 04:12:00,64.0,10.0,29.94,NNE,18,6.0,8.0,12,0.00,,,-99.99,,2013-05-18 10:12:00,
2013-05-18 04:23:00,64.0,10.0,29.95,NNE,21,7.0,9.0,12,0.00,,,-99.99,,2013-05-18 10:23:00,
2013-05-18 04:33:00,64.0,10.0,29.95,North,2,7.0,15.0,12,0.00,,,-99.99,,2013-05-18 10:33:00,
2013-05-18 04:42:00,64.0,10.0,29.95,North,2,7.0,15.0,12,0.00,,,-99.99,,2013-05-18 10:42:00,
2013-05-18 04:52:00,64.0,10.0,29.95,NE,46,6.0,9.0,12,0.00,,,-99.99,,2013-05-18 10:52:00,
2013-05-18 05:02:00,64.0,10.0,29.95,NNE,22,5.0,9.0,12,0.00,,,-99.99,,2013-05-18 11:02:00,
2013-05-18 05:12:00,64.0,10.0,29.95,NNE,22,5.0,9.0,12,0.00,,,-99.99,,2013-05-18 11:12:00,
2013-05-18 05:22:00,63.0,10.0,29.95,NNE,32,6.0,12.0,12,0.00,,,-99.99,,2013-05-18 11:22:00,
2013-05-18 05:33:00,63.0,11.0,29.96,NNE,29,6.0,6.0,13,0.00,,,-99.99,,2013-05-18 11:33:00,
2013-05-18 05:42:00,63.0,11.0,29.96,NNE,29,6.0,6.0,13,0.00,,,-99.99,,2013-05-18 11:42:00,
2013-05-18 05:52:00,63.0,11.0,29.96,NE,36,5.0,8.0,13,0.00,,,-99.99,,2013-05-18 11:52:00,
2013-05-18 06:01:00,63.0,13.0,29.97,NNE,23,4.0,7.0,14,0.00,,,-99.99,,2013-05-18 12:01:00,
2013-05-18 06:12:00,63.0,13.0,29.97,NNE,23,4.0,7.0,14,0.00,,,-99.99,,2013-05-18 12:12:00,
2013-05-18 06:23:00,62.0,14.0,29.98,NNE,30,4.0,6.0,15,0.00,,,-99.99,,2013-05-18 12:23:00,
2013-05-18 06:33:00,61.0,14.0,29.98,NNE,19,2.0,6.0,16,0.00,,,-99.99,,2013-05-18 12:33:00,
2013-05-18 06:42:00,61.0,14.0,29.98,NNE,19,2.0,6.0,16,0.00,,,-99.99,,2013-05-18 12:42:00,
2013-05-18 06:52:00,61.0,14.0,29.99,NNE,14,0.0,3.0,16,0.00,,,-99.99,,2013-05-18 12:52:00,
2013-05-18 07:01:00,60.0,15.0,29.99,NNE,18,0.0,4.0,17,0.00,,,-99.99,,2013-05-18 13:01:00,
2013-05-18 07:11:00,60.0,15.0,29.99,NNE,18,0.0,4.0,17,0.00,,,-99.99,,2013-05-18 13:11:00,
2013-05-18 07:21:00,60.0,15.0,30.00,NNE,18,0.0,0.0,17,0.00,,,-99.99,,2013-05-18 13:21:00,
2013-05-18 07:33:00,60.0,16.0,30.00,NNE,18,0.0,0.0,18,0.00,,,-99.99,,2013-05-18 13:33:00,
2013-05-18 07:43:00,60.0,16.0,30.00,NNE,18,0.0,0.0,18,0.00,,,-99.99,,2013-05-18 13:43:00,
2013-05-18 07:52:00,62.0,17.0,30.00,NNE,18,0.0,0.0,17,0.00,,,-99.99,,2013-05-18 13:52:00,
2013-05-18 08:03:00,64.0,17.0,30.00,NNE,18,3.0,6.0,16,0.00,,,-99.99,,2013-05-18 14:03:00,
2013-05-18 08:12:00,64.0,17.0,30.00,NNE,18,3.0,6.0,16,0.00,,,-99.99,,2013-05-18 14:12:00,
2013-05-18 08:22:00,65.0,16.0,29.99,NNE,22,5.0,6.0,15,0.00,,,-99.99,,2013-05-18 14:22:00,
2013-05-18 08:32:00,67.0,16.0,29.98,NNW,345,6.0,8.0,14,0.00,,,-99.99,,2013-05-18 14:32:00,
2013-05-18 08:42:00,67.0,16.0,29.98,NNW,345,6.0,8.0,14,0.00,,,-99.99,,2013-05-18 14:42:00,
2013-05-18 08:54:00,67.0,16.0,29.97,North,355,5.0,7.0,14,0.00,,,-99.99,,2013-05-18 14:54:00,
2013-05-18 09:03:00,67.0,18.0,29.97,WNW,285,6.0,10.0,15,0.00,,,-99.99,,2013-05-18 15:03:00,
2013-05-18 09:13:00,67.0,18.0,29.97,WNW,285,6.0,10.0,15,0.00,,,-99.99,,2013-05-18 15:13:00,
2013-05-18 09:23:00,68.0,17.0,29.96,NNW,338,5.0,8.0,14,0.00,,,-99.99,,2013-05-18 15:23:00,
2013-05-18 09:33:00,68.0,17.0,29.95,NNW,334,7.0,12.0,14,0.00,,,-99.99,,2013-05-18 15:33:00,
2013-05-18 09:43:00,68.0,17.0,29.95,NNW,334,7.0,12.0,14,0.00,,,-99.99,,2013-05-18 15:43:00,
2013-05-18 09:53:00,68.0,19.0,29.93,NW,315,8.0,9.0,15,0.00,,,-99.99,,2013-05-18 15:53:00,
2013-05-18 10:02:00,69.0,19.0,29.93,NW,309,8.0,9.0,15,0.00,,,-99.99,,2013-05-18 16:02:00,
2013-05-18 10:13:00,69.0,19.0,29.93,NW,309,8.0,9.0,15,0.00,,,-99.99,,2013-05-18 16:13:00,
2013-05-18 10:22:00,69.0,18.0,29.94,North,355,6.0,12.0,14,0.00,,,-99.99,,2013-05-18 16:22:00,
2013-05-18 10:33:00,70.0,20.0,29.93,NW,315,8.0,9.0,15,0.00,,,-99.99,,2013-05-18 16:33:00,
2013-05-18 10:42:00,70.0,20.0,29.93,NW,315,8.0,9.0,15,0.00,,,-99.99,,2013-05-18 16:42:00,
2013-05-18 10:52:00,70.0,15.0,29.93,WSW,255,10.0,18.0,12,0.00,,,-99.99,,2013-05-18 16:52:00,
2013-05-18 11:02:00,70.0,17.0,29.92,NW,310,6.0,17.0,13,0.00,,,-99.99,,2013-05-18 17:02:00,
2013-05-18 11:12:00,70.0,17.0,29.92,NW,310,6.0,17.0,13,0.00,,,-99.99,,2013-05-18 17:12:00,
2013-05-18 11:22:00,71.0,16.0,29.92,WSW,258,11.0,15.0,12,0.00,,,-99.99,,2013-05-18 17:22:00,
2013-05-18 11:32:00,70.0,15.0,29.92,WSW,255,13.0,17.0,12,0.00,,,-99.99,,2013-05-18 17:32:00,
2013-05-18 11:51:00,69.0,16.0,29.91,NNW,343,6.0,9.0,13,0.00,,,-99.99,,2013-05-18 17:51:00,
2013-05-18 12:01:00,69.0,19.0,29.91,West,274,9.0,15.0,15,0.00,,,-99.99,,2013-05-18 18:01:00,
2013-05-18 12:12:00,69.0,19.0,29.91,West,274,9.0,15.0,15,0.00,,,-99.99,,2013-05-18 18:12:00,
2013-05-18 12:21:00,70.0,19.0,29.90,WNW,303,7.0,9.0,14,0.00,,,-99.99,,2013-05-18 18:21:00,
2013-05-18 12:32:00,71.0,18.0,29.90,WNW,299,13.0,13.0,13,0.00,,,-99.99,,2013-05-18 18:32:00,
2013-05-18 12:42:00,70.0,19.0,29.89,West,262,14.0,21.0,14,0.00,,,-99.99,,2013-05-18 18:42:00,
2013-05-18 12:52:00,70.0,19.0,29.89,West,262,14.0,21.0,14,0.00,,,-99.99,,2013-05-18 18:52:00,
2013-05-18 13:02:00,71.0,16.0,29.88,West,260,11.0,13.0,12,0.00,,,-99.99,,2013-05-18 19:02:00,
2013-05-18 13:11:00,71.0,16.0,29.88,West,260,11.0,13.0,12,0.00,,,-99.99,,2013-05-18 19:11:00,
2013-05-18 13:22:00,74.0,14.0,29.88,WNW,298,14.0,16.0,10,0.00,,,-99.99,,2013-05-18 19:22:00,
2013-05-18 13:32:00,72.0,15.0,29.87,West,279,13.0,21.0,11,0.00,,,-99.99,,2013-05-18 19:32:00,
2013-05-18 13:52:00,72.0,15.0,29.86,WSW,243,14.0,15.0,11,0.00,,,-99.99,,2013-05-18 19:52:00,
2013-05-18 14:01:00,71.0,16.0,29.86,SSW,203,9.0,18.0,12,0.00,,,-99.99,,2013-05-18 20:01:00,
2013-05-18 14:22:00,73.0,13.0,29.85,SW,215,12.0,15.0,10,0.00,,,-99.99,,2013-05-18 20:22:00,
2013-05-18 14:32:00,73.0,13.0,29.85,SW,227,20.0,20.0,10,0.00,,,-99.99,,2013-05-18 20:32:00,
2013-05-18 14:52:00,74.0,14.0,29.85,WSW,248,11.0,23.0,10,0.00,,,-99.99,,2013-05-18 20:52:00,
2013-05-18 15:01:00,74.0,12.0,29.84,West,270,5.0,21.0,9,0.00,,,-99.99,,2013-05-18 21:01:00,
2013-05-18 15:21:00,74.0,12.0,29.84,WSW,251,11.0,22.0,9,0.00,,,-99.99,,2013-05-18 21:21:00,
2013-05-18 15:32:00,74.0,14.0,29.83,WSW,247,14.0,14.0,10,0.00,,,-99.99,,2013-05-18 21:32:00,
2013-05-18 15:53:00,73.0,13.0,29.83,WSW,257,9.0,21.0,10,0.00,,,-99.99,,2013-05-18 21:53:00,
2013-05-18 16:03:00,72.0,12.0,29.82,SSW,205,11.0,11.0,10,0.00,,,-99.99,,2013-05-18 22:03:00,
2013-05-18 16:12:00,72.0,15.0,29.82,West,272,10.0,20.0,11,0.00,,,-99.99,,2013-05-18 22:12:00,
2013-05-18 16:23:00,72.0,15.0,29.82,West,272,10.0,20.0,11,0.00,,,-99.99,,2013-05-18 22:23:00,
2013-05-18 16:33:00,74.0,14.0,29.82,SSW,208,12.0,22.0,10,0.00,,,-99.99,,2013-05-18 22:33:00,
2013-05-18 16:42:00,73.0,13.0,29.81,SW,216,14.0,21.0,10,0.00,,,-99.99,,2013-05-18 22:42:00,
2013-05-18 16:52:00,73.0,13.0,29.81,SW,216,14.0,21.0,10,0.00,,,-99.99,,2013-05-18 22:52:00,
2013-05-18 17:01:00,73.0,15.0,29.80,SSW,201,10.0,19.0,11,0.00,,,-99.99,,2013-05-18 23:01:00,
2013-05-18 17:22:00,72.0,15.0,29.79,SSE,165,14.0,20.0,11,0.00,,,-99.99,,2013-05-18 23:22:00,
2013-05-18 17:32:00,73.0,15.0,29.78,SSW,199,12.0,17.0,11,0.00,,,-99.99,,2013-05-18 23:32:00,
2013-05-18 17:53:00,73.0,15.0,29.77,SSW,213,11.0,15.0,11,0.00,,,-99.99,,2013-05-18 23:53:00,
2013-05-18 18:01:00,73.0,15.0,29.76,SSE,168,11.0,17.0,11,0.00,,,-99.99,,2013-05-19 00:01:00,
2013-05-18 18:21:00,73.0,15.0,29.76,SW,215,10.0,14.0,11,0.00,,,-99.99,,2013-05-19 00:21:00,
2013-05-18 18:31:00,73.0,15.0,29.76,SSE,149,12.0,15.0,11,0.00,,,-99.99,,2013-05-19 00:31:00,
2013-05-18 18:52:00,73.0,8.0,29.75,WSW,253,18.0,18.0,8,0.00,,,-99.99,,2013-05-19 00:52:00,
2013-05-18 19:01:00,73.0,11.0,29.76,SW,233,6.0,11.0,9,0.00,,,-99.99,,2013-05-19 01:01:00,
2013-05-18 19:21:00,72.0,12.0,29.76,WSW,240,7.0,13.0,10,0.00,,,-99.99,,2013-05-19 01:21:00,
2013-05-18 19:32:00,73.0,11.0,29.76,WNW,303,0.0,4.0,9,0.00,,,-99.99,,2013-05-19 01:32:00,
2013-05-18 19:52:00,73.0,8.0,29.76,SW,219,9.0,9.0,8,0.00,,,-99.99,,2013-05-19 01:52:00,
2013-05-18 20:01:00,73.0,8.0,29.77,NW,312,10.0,18.0,8,0.00,,,-99.99,,2013-05-19 02:01:00,
2013-05-18 20:11:00,72.0,7.0,29.77,West,277,10.0,17.0,8,0.00,,,-99.99,,2013-05-19 02:11:00,
2013-05-18 20:21:00,72.0,7.0,29.77,West,277,10.0,17.0,8,0.00,,,-99.99,,2013-05-19 02:21:00,
2013-05-18 20:32:00,71.0,12.0,29.78,NW,310,7.0,15.0,10,0.00,,,-99.99,,2013-05-19 02:32:00,
2013-05-18 20:42:00,71.0,12.0,29.78,NW,310,7.0,15.0,10,0.00,,,-99.99,,2013-05-19 02:42:00,
2013-05-18 20:52:00,70.0,9.0,29.78,WNW,293,15.0,16.0,9,0.00,,,-99.99,,2013-05-19 02:52:00,
2013-05-18 21:01:00,70.0,11.0,29.79,NNW,338,10.0,14.0,10,0.00,,,-99.99,,2013-05-19 03:01:00,
2013-05-18 21:11:00,70.0,11.0,29.79,NNW,338,10.0,14.0,10,0.00,,,-99.99,,2013-05-19 03:11:00,
2013-05-18 21:21:00,70.0,13.0,29.80,WNW,300,6.0,11.0,11,0.00,,,-99.99,,2013-05-19 03:21:00,
2013-05-18 21:33:00,69.0,12.0,29.80,NW,307,10.0,15.0,11,0.00,,,-99.99,,2013-05-19 03:33:00,
2013-05-18 21:42:00,69.0,12.0,29.80,NW,307,10.0,15.0,11,0.00,,,-99.99,,2013-05-19 03:42:00,
2013-05-18 21:53:00,68.0,15.0,29.81,NW,326,10.0,19.0,13,0.00,,,-99.99,,2013-05-19 03:53:00,
2013-05-18 22:02:00,67.0,19.0,29.83,North,2,10.0,15.0,16,0.00,,,-99.99,,2013-05-19 04:02:00,
2013-05-18 22:12:00,67.0,19.0,29.83,North,2,10.0,15.0,16,0.00,,,-99.99,,2013-05-19 04:12:00,
2013-05-18 22:23:00,66.0,20.0,29.84,NNW,340,8.0,16.0,17,0.00,,,-99.99,,2013-05-19 04:23:00,
2013-05-18 22:33:00,66.0,21.0,29.85,North,7,7.0,19.0,18,0.00,,,-99.99,,2013-05-19 04:33:00,
2013-05-18 22:42:00,66.0,21.0,29.85,North,7,7.0,19.0,18,0.00,,,-99.99,,2013-05-19 04:42:00,
2013-05-18 22:53:00,65.0,20.0,29.85,North,5,10.0,13.0,18,0.00,,,-99.99,,2013-05-19 04:53:00,
2013-05-18 23:02:00,65.0,20.0,29.86,North,2,11.0,17.0,18,0.00,,,-99.99,,2013-05-19 05:02:00,
2013-05-18 23:12:00,65.0,20.0,29.86,North,2,11.0,17.0,18,0.00,,,-99.99,,2013-05-19 05:12:00,
2013-05-18 23:22:00,64.0,23.0,29.86,NNW,334,18.0,18.0,21,0.00,,,-99.99,,2013-05-19 05:22:00,
2013-05-18 23:32:00,64.0,26.0,29.88,North,358,9.0,17.0,24,0.00,,,-99.99,,2013-05-19 05:32:00,
2013-05-18 23:42:00,63.0,28.0,29.88,North,357,8.0,16.0,26,0.00,,,-99.99,,2013-05-19 05:42:00,
2013-05-18 23:52:00,63.0,28.0,29.88,North,357,8.0,16.0,26,0.00,,,-99.99,,2013-05-19 05:52:00,